This is the latest recevied weather packets stored in our database for station/object HARMALA. If no packets are shown the sender has not sent any weather packets the latest 10 day(s).
| Time | Temp. | Humidity | Pressure | Rain* | Wind** | Luminosity | Snow |
|---|---|---|---|---|---|---|---|
| 1777622821 | 13.33° C | 52% | 1019.9 hPa | 0 mm | - | - | - |
| 1777621619 | 13.33° C | 52% | 1020 hPa | 0 mm | - | - | - |
| 1777620419 | 12.78° C | 54% | 1020 hPa | 0 mm | - | - | - |
| 1777619219 | 12.22° C | 57% | 1020.1 hPa | 0 mm | - | - | - |
| 1777618018 | 11.67° C | 60% | 1020.2 hPa | 0 mm | - | - | - |
| 1777616819 | 10° C | 64% | 1020.3 hPa | 0 mm | - | - | - |
| 1777615619 | 9.44° C | 67% | 1020.3 hPa | 0 mm | - | - | - |
| 1777614418 | 8.89° C | 70% | 1020.3 hPa | 0 mm | - | - | - |
| 1777613218 | 8.33° C | 74% | 1020.4 hPa | 0 mm | - | - | - |
| 1777612018 | 7.78° C | 77% | 1020.4 hPa | 0 mm | - | - | - |
| 1777610818 | 7.22° C | 78% | 1020.5 hPa | 0 mm | - | - | - |
| 1777609618 | 6.67° C | 80% | 1020.6 hPa | 0 mm | - | - | - |
| 1777608419 | 6.11° C | 82% | 1020.6 hPa | 0 mm | - | - | - |
| 1777607218 | 5.56° C | 90% | 1020.7 hPa | 0 mm | - | - | - |
| 1777606019 | 3.33° C | 94% | 1021 hPa | 0 mm | - | - | - |
| 1777604818 | 2.78° C | 94% | 1021 hPa | 0 mm | - | - | - |
| 1777603619 | 2.78° C | 93% | 1021 hPa | 0 mm | - | - | - |
| 1777602418 | 3.33° C | 92% | 1021.2 hPa | 0 mm | - | - | - |
| 1777601218 | 3.33° C | 93% | 1021.3 hPa | 0 mm | - | - | - |
| 1777583217 | 11.11° C | 65% | 1021.2 hPa | 0 mm | - | - | - |
| 1777580817 | 11.67° C | 63% | 1021 hPa | 0 mm | - | - | - |
| 1777579616 | 11.67° C | 62% | 1020.8 hPa | 0 mm | - | - | - |
| 1777573617 | 13.89° C | 56% | 1020.2 hPa | 0 mm | - | - | - |
| 1777572416 | 14.44° C | 55% | 1020.1 hPa | 0 mm | - | - | - |
| 1777562815 | 15.56° C | 47% | 1019.3 hPa | 0 mm | - | - | - |
* Rain latest hour (hover to see other rain measurements)
** Current wind speed in m/s (hover to see current wind gust speed)